• Join FlightAware (Why Join?)
  • Login
  • US Flag 
11:27AM EDT


 

Airport Tracker/Info


-or-


 

Live Flight TrackerFlight Track Log ✈ RPA4937 ✈ 03-May-2013 ✈ KEWR - KPWM

Flight Track Log - Related Links

Times and Time Zones

All times are in EDT time to prevent confusion due to time zone crossing. See the RPA4937 flight status page for this flight to view local times or setup timezone preferences in your user account.

Time Position Orientation Groundspeed Altitude Reporting Facility
EDT Latitude Longitude Course Direction KTS MPH feet Rate Location/Type
09:23AM 40.7167 -74.1500 74° East 175 201 1,700  Level New York TRACON
09:24AM 40.7500 -74.1000 49° Northeast 211 243 3,400 2,160 Climbing New York TRACON
09:25AM 40.8167 -74.1000 360° North 229 264 5,900 1,260 Climbing New York TRACON
09:26AM 41.0529 -74.1373 North  Level FlightAware Approximate
09:26AM 40.8667 -74.1333 333° Northwest 245 282 6,000  Level New York TRACON
09:27AM 41.1459 -74.1333 North  Level FlightAware Approximate
09:27AM 40.9333 -74.1500 349° North 242 278 6,000  Level New York TRACON
09:28AM 41.1752 -74.0200 74° East  Level FlightAware Approximate
09:28AM 41.0000 -74.1833 339° North 236 272 6,000  Level New York TRACON
09:29AM 41.0667 -74.1833 360° North 235 270 6,000  Level New York TRACON
09:30AM 41.1167 -74.1500 27° Northeast 233 268 6,000 300 Level New York TRACON
09:31AM 41.1667 -74.1000 37° Northeast 237 273 6,700 1,260 Climbing New York TRACON
09:32AM 41.1833 -74.0167 75° East 248 285 8,600 1,920 Climbing New York TRACON
09:34AM 41.2247 -73.8394 73° East 253 291 12,900 1,380 Climbing Boston Center
09:35AM 41.2489 -73.7267 74° East 262 302 13,000  Climbing Boston Center
09:36AM 41.2686 -73.6303 75° East 289 333 13,000  Level Boston Center
09:37AM 41.3178 -73.5264 58° Northeast 291 335 13,000 540 Level Boston Center
09:38AM 41.3725 -73.4608 42° Northeast 291 335 14,100 1,380 Climbing Boston Center
09:39AM 41.4336 -73.3758 46° Northeast 286 329 15,800 1,620 Climbing Boston Center
09:40AM 41.4906 -73.3047 43° Northeast 281 323 17,400 1,440 Climbing Boston Center
09:41AM 41.5411 -73.2361 45° Northeast 269 310 18,700 780 Climbing Boston Center
09:42AM 41.5936 -73.1672 44° Northeast 262 302 19,000 600 Climbing Boston Center
09:43AM 41.6564 -73.1097 34° Northeast 267 307 19,900 1,020 Climbing Boston Center
09:44AM 41.7336 -73.1244 352° North 255 293 21,100 1,200 Climbing Boston Center
09:45AM 41.8064 -73.1392 351° North 255 293 22,300 900 Climbing Boston Center
09:46AM 41.8792 -73.1511 353° North 260 299 23,000 300 Climbing Boston Center
09:47AM 41.9583 -73.1658 352° North 265 305 23,000  Level Boston Center
09:48AM 42.0436 -73.1781 354° North 286 329 23,000  Level Boston Center
09:49AM 42.1311 -73.1958 351° North 305 351 23,000  Level Boston Center
09:50AM 42.2228 -73.2025 357° North 317 365 23,000  Level Boston Center
09:51AM 42.2964 -73.0997 46° Northeast 288 331 23,000  Level Boston Center
09:52AM 42.3511 -73.0075 51° Northeast 314 361 23,000  Level Boston Center
09:53AM 42.4056 -72.9125 52° Northeast 319 367 23,000  Level Boston Center
09:54AM 42.4622 -72.8228 49° Northeast 319 367 23,000  Level Boston Center
09:55AM 42.5167 -72.7331 51° Northeast 319 367 23,000 -480 Level Boston Center
09:56AM 42.5711 -72.6431 51° Northeast 313 360 22,100 -900 Descending Boston Center
09:57AM 42.6339 -72.5586 45° Northeast 307 353 21,200 -900 Descending Boston Center
09:58AM 42.6817 -72.4767 52° Northeast 301 346 20,300 -900 Descending Boston Center
09:59AM 42.7381 -72.3864 50° Northeast 296 341 19,500 -660 Descending Boston Center
10:00AM 42.7839 -72.2958 55° Northeast 296 341 19,000 -300 Descending Boston Center
10:01AM 42.8419 -72.2022 50° Northeast 297 342 19,000  Level Boston Center
10:02AM 42.8939 -72.1142 51° Northeast 297 342 19,000  Level Boston Center
10:03AM 42.9456 -72.0231 52° Northeast 302 348 19,000  Level Boston Center
10:04AM 42.9994 -71.9347 50° Northeast 302 348 19,000 -420 Level Boston Center
10:05AM 43.0553 -71.8378 52° Northeast 311 358 18,200 -780 Descending Boston Center
10:06AM 43.1322 -71.7828 28° Northeast 300 345 17,500 -600 Descending Boston Center
10:07AM 43.2133 -71.7992 352° North 300 345 17,000 -600 Descending Boston Center
10:08AM 43.2906 -71.8125 353° North 305 351 16,400 -900 Descending Boston Center
10:09AM 43.3697 -71.7661 23° Northeast 289 333 15,300 -1,020 Descending Boston Center
10:10AM 43.3939 -71.6372 75° East 266 306 14,400 -840 Descending Boston Center
10:11AM 43.4075 -71.5397 79° East 273 314 13,700 -840 Descending Boston Center
10:12AM 43.4253 -71.4167 79° East 292 336 12,800 -840 Descending Boston Center
10:13AM 43.4389 -71.3192 79° East 292 336 12,100 -720 Descending Boston Center
10:14AM 43.4544 -71.2075 79° East 292 336 11,400 -600 Descending Boston Center
10:15AM 43.4739 -71.0839 78° East 297 342 11,000 -360 Descending Boston Center
10:16AM 43.4978 -70.9889 71° East 297 342 10,700 -840 Descending Boston Center
10:17AM 43.5233 -70.8767 73° East 290 334 9,400 -1,260 Descending Boston Center
10:18AM 43.5450 -70.7817 73° East 261 300 8,200 -1,200 Descending Boston Center
10:19AM 43.5644 -70.6894 74° East 251 289 7,100 -1,200 Descending Boston Center
10:20AM 43.5839 -70.6028 73° East 237 273 5,800 -1,320 Descending Boston Center